KKP6543 YSSY-ZGGG
Flight info
| Callsign | KKP6543 |
|---|---|
| Flight time | N/A |
| Altitude | 30000 |
| Route | RIC6/34L RIC DCT 3332S15037E DCT DUPUG/N0502F310 DCT 2420S14849E DCT LAMEK/N0506F300 G205 PIPPA/N0504F320 G205 RUTUS DCT 01N146E 02N144E 03N143E/N0501F340 DCT KEONE DCT 05N140E 06N138E 07N136E DCT ROR R337 TAC/N0496F360 B462 MIA/N0500F340 L628 DODUS/N0496F360 W3 AKOTA A583 SABNO DCT TOFEE DCT SUKER DCT ALDOM J103 SAPAX DCT BIGEX B330 TAMOT/K0752S0450 W68 IDUMA IDUMA9 |
| Aircraft | MD11/H-SDE1E2E3FGHIJ2J3J4J5M1RWXY/LB1D1 |
Departure
| Time | 2026-05-04 07:26 |
|---|---|
| Airport | Sydney Kingsford Smith International Airport (YSSY) |
Arrival
| Time | N/A |
|---|---|
| Airport | Guangzhou Baiyun International Airport (ZGGG) |
| Time | Latitude | Longitude | Altitude | Speed | Heading |
|---|---|---|---|---|---|
| 2026-05-04 07:01 | -33.93048 | 151.16754 | 37 ft | 0 kts | 257° |
| 2026-05-04 07:05 | -33.93048 | 151.16755 | 37 ft | 0 kts | 257° |
| 2026-05-04 07:14 | -33.93062 | 151.16768 | 37 ft | 2 kts | 97° |
| 2026-05-04 07:14 | -33.93048 | 151.16868 | 37 ft | 17 kts | 96° |
| 2026-05-04 07:15 | -33.93118 | 151.16943 | 37 ft | 16 kts | 157° |
| 2026-05-04 07:15 | -33.93203 | 151.16951 | 37 ft | 11 kts | 174° |
| 2026-05-04 07:15 | -33.93263 | 151.16979 | 37 ft | 8 kts | 148° |
| 2026-05-04 07:15 | -33.93298 | 151.17012 | 35 ft | 5 kts | 142° |
| 2026-05-04 07:16 | -33.93319 | 151.17030 | 36 ft | 3 kts | 145° |
| 2026-05-04 07:16 | -33.93339 | 151.17045 | 36 ft | 5 kts | 150° |
| 2026-05-04 07:16 | -33.93382 | 151.17068 | 37 ft | 9 kts | 159° |
| 2026-05-04 07:16 | -33.93461 | 151.17093 | 37 ft | 15 kts | 168° |
| 2026-05-04 07:17 | -33.93590 | 151.17126 | 37 ft | 23 kts | 168° |
| 2026-05-04 07:17 | -33.93761 | 151.17169 | 36 ft | 25 kts | 168° |
| 2026-05-04 07:17 | -33.93876 | 151.17199 | 36 ft | 0 kts | 167° |
| 2026-05-04 07:17 | -33.93877 | 151.17199 | 36 ft | 1 kts | 167° |
| 2026-05-04 07:18 | -33.93894 | 151.17203 | 36 ft | 0 kts | 167° |
| 2026-05-04 07:19 | -33.93908 | 151.17207 | 36 ft | 8 kts | 167° |
| 2026-05-04 07:20 | -33.93998 | 151.17231 | 37 ft | 15 kts | 167° |
| 2026-05-04 07:20 | -33.94100 | 151.17258 | 36 ft | 16 kts | 167° |
| 2026-05-04 07:20 | -33.94220 | 151.17289 | 36 ft | 19 kts | 168° |
| 2026-05-04 07:20 | -33.94350 | 151.17323 | 38 ft | 20 kts | 168° |
| 2026-05-04 07:22 | -33.95649 | 151.17660 | 37 ft | 34 kts | 168° |
| 2026-05-04 07:22 | -33.95883 | 151.17717 | 37 ft | 35 kts | 168° |
| 2026-05-04 07:23 | -33.96127 | 151.17779 | 38 ft | 36 kts | 167° |
| 2026-05-04 07:23 | -33.96369 | 151.17848 | 37 ft | 24 kts | 166° |
| 2026-05-04 07:23 | -33.96430 | 151.17916 | 37 ft | 6 kts | 94° |
| 2026-05-04 07:23 | -33.96430 | 151.17927 | 36 ft | 0 kts | 93° |
| 2026-05-04 07:24 | -33.96430 | 151.17933 | 37 ft | 2 kts | 91° |
| 2026-05-04 07:24 | -33.96427 | 151.17978 | 37 ft | 10 kts | 82° |
| 2026-05-04 07:24 | -33.96386 | 151.18044 | 37 ft | 7 kts | 8° |
| 2026-05-04 07:25 | -33.96335 | 151.18040 | 37 ft | 10 kts | 351° |
| 2026-05-04 07:26 | -33.89598 | 151.15345 | 1700 ft | 239 kts | 318° |
| 2026-05-04 07:27 | -33.88412 | 151.13899 | 2569 ft | 246 kts | 315° |
| 2026-05-04 07:27 | -33.87362 | 151.12287 | 3609 ft | 246 kts | 305° |
| 2026-05-04 07:27 | -33.86434 | 151.10579 | 4685 ft | 237 kts | 315° |
| 2026-05-04 07:27 | -33.85000 | 151.09681 | 5509 ft | 248 kts | 351° |
| 2026-05-04 07:28 | -33.83157 | 151.09895 | 5682 ft | 285 kts | 7° |
| 2026-05-04 07:28 | -33.81140 | 151.10324 | 6264 ft | 296 kts | 3° |
| 2026-05-04 07:28 | -33.79185 | 151.10512 | 6496 ft | 276 kts | 358° |
| 2026-05-04 07:28 | -33.77266 | 151.10531 | 6112 ft | 270 kts | 354° |
| 2026-05-04 07:29 | -33.75472 | 151.10381 | 6373 ft | 243 kts | 350° |
| 2026-05-04 07:29 | -33.73813 | 151.10159 | 6937 ft | 242 kts | 353° |
| 2026-05-04 07:29 | -33.72114 | 151.10173 | 7613 ft | 245 kts | 0° |
| 2026-05-04 07:29 | -33.70417 | 151.10415 | 8338 ft | 245 kts | 4° |
| 2026-05-04 07:30 | -33.68731 | 151.10740 | 8966 ft | 247 kts | 3° |
| 2026-05-04 07:30 | -33.66985 | 151.10601 | 9179 ft | 257 kts | 336° |
| 2026-05-04 07:30 | -33.65540 | 151.09469 | 9721 ft | 259 kts | 311° |
| 2026-05-04 07:30 | -33.64688 | 151.07545 | 10378 ft | 259 kts | 283° |
| 2026-05-04 07:31 | -33.64652 | 151.05589 | 11805 ft | 220 kts | 272° |
| 2026-05-04 07:31 | -33.64709 | 151.03746 | 12370 ft | 224 kts | 275° |
| 2026-05-04 07:33 | -33.63297 | 150.90833 | 15328 ft | 227 kts | 290° |
| 2026-05-04 07:33 | -33.62995 | 150.89610 | 15433 ft | 235 kts | 290° |
| 2026-05-04 07:33 | -33.62497 | 150.87688 | 15589 ft | 248 kts | 291° |
| 2026-05-04 07:33 | -33.61951 | 150.85661 | 15744 ft | 262 kts | 291° |
| 2026-05-04 07:34 | -33.61359 | 150.83527 | 15898 ft | 278 kts | 291° |
| 2026-05-04 07:34 | -33.60701 | 150.81277 | 16033 ft | 293 kts | 295° |
| 2026-05-04 07:34 | -33.59718 | 150.79089 | 16199 ft | 305 kts | 308° |
| 2026-05-04 07:34 | -33.58141 | 150.77318 | 16337 ft | 319 kts | 328° |
| 2026-05-04 07:35 | -33.56062 | 150.76214 | 16497 ft | 335 kts | 339° |
| 2026-05-04 07:35 | -33.53781 | 150.75425 | 16637 ft | 350 kts | 342° |
| 2026-05-04 07:35 | -33.51410 | 150.74712 | 17266 ft | 344 kts | 343° |
| 2026-05-04 07:35 | -33.49074 | 150.74032 | 17727 ft | 352 kts | 343° |
| 2026-05-04 07:36 | -33.46661 | 150.73286 | 17879 ft | 364 kts | 342° |
| 2026-05-04 07:36 | -33.44206 | 150.72504 | 18382 ft | 363 kts | 342° |
| 2026-05-04 07:38 | -33.39520 | 150.70993 | 19600 ft | 357 kts | 341° |
| 2026-05-04 07:38 | -33.37081 | 150.70189 | 19731 ft | 368 kts | 341° |
| 2026-05-04 07:38 | -33.34577 | 150.69363 | 19862 ft | 378 kts | 341° |
| 2026-05-04 07:38 | -33.32026 | 150.68524 | 20143 ft | 382 kts | 341° |
| 2026-05-04 07:39 | -33.29458 | 150.67682 | 20554 ft | 384 kts | 341° |
| 2026-05-04 07:39 | -33.26873 | 150.66837 | 20950 ft | 385 kts | 341° |
| 2026-05-04 07:39 | -33.24280 | 150.65989 | 21343 ft | 387 kts | 341° |
| 2026-05-04 07:39 | -33.21671 | 150.65136 | 21752 ft | 389 kts | 340° |
| 2026-05-04 07:40 | -33.19053 | 150.64281 | 22167 ft | 391 kts | 340° |
| 2026-05-04 07:40 | -33.16426 | 150.63423 | 22566 ft | 393 kts | 340° |
| 2026-05-04 07:40 | -33.13786 | 150.62561 | 22998 ft | 394 kts | 340° |
| 2026-05-04 07:40 | -33.11133 | 150.61695 | 23411 ft | 396 kts | 340° |
| 2026-05-04 07:41 | -33.08463 | 150.60823 | 23795 ft | 398 kts | 340° |
| 2026-05-04 07:41 | -33.05783 | 150.59950 | 24158 ft | 400 kts | 340° |
| 2026-05-04 07:41 | -33.03134 | 150.59087 | 24536 ft | 401 kts | 340° |
| 2026-05-04 07:41 | -33.00433 | 150.58208 | 24886 ft | 403 kts | 340° |
| 2026-05-04 07:42 | -32.97720 | 150.57325 | 25259 ft | 405 kts | 340° |
| 2026-05-04 07:42 | -32.94996 | 150.56440 | 25645 ft | 407 kts | 340° |
| 2026-05-04 07:42 | -32.92264 | 150.55552 | 26016 ft | 408 kts | 340° |
| 2026-05-04 07:42 | -32.89545 | 150.54670 | 26393 ft | 407 kts | 340° |
| 2026-05-04 07:43 | -32.86903 | 150.53820 | 26447 ft | 382 kts | 339° |
| 2026-05-04 07:43 | -32.84378 | 150.53059 | 25794 ft | 373 kts | 358° |
| 2026-05-04 07:43 | -32.82014 | 150.53250 | 19897 ft | 256 kts | 335° |
| 2026-05-04 07:43 | -32.80237 | 150.52473 | 8147 ft | 352 kts | 6° |
| 2026-05-04 07:44 | -32.79081 | 150.52861 | 1876 ft | 0 kts | 258° |
| 2026-05-04 07:44 | -32.79082 | 150.52861 | 1875 ft | 0 kts | 259° |